sensor_id;sensor_type;location;lat;lon;timestamp;P1;durP1;ratioP1;P2;durP2;ratioP2
9938;SDS011;5008;50.656;7.188;2022-10-15T00:01:09;5.17;;;4.73;;
9938;SDS011;5008;50.656;7.188;2022-10-15T00:03:37;4.50;;;4.10;;
9938;SDS011;5008;50.656;7.188;2022-10-15T00:06:05;4.20;;;3.80;;
9938;SDS011;5008;50.656;7.188;2022-10-15T00:08:33;3.90;;;3.60;;
9938;SDS011;5008;50.656;7.188;2022-10-15T00:11:04;3.67;;;3.37;;
9938;SDS011;5008;50.656;7.188;2022-10-15T00:13:32;4.80;;;4.40;;
9938;SDS011;5008;50.656;7.188;2022-10-15T00:15:59;5.30;;;4.80;;
9938;SDS011;5008;50.656;7.188;2022-10-15T00:18:27;5.37;;;4.07;;
9938;SDS011;5008;50.656;7.188;2022-10-15T00:20:54;5.20;;;4.70;;
9938;SDS011;5008;50.656;7.188;2022-10-15T00:23:21;5.13;;;3.63;;
9938;SDS011;5008;50.656;7.188;2022-10-15T00:25:48;4.17;;;3.77;;
9938;SDS011;5008;50.656;7.188;2022-10-15T00:28:15;4.33;;;4.03;;
9938;SDS011;5008;50.656;7.188;2022-10-15T00:30:41;4.37;;;3.80;;
9938;SDS011;5008;50.656;7.188;2022-10-15T00:33:08;4.70;;;4.20;;
9938;SDS011;5008;50.656;7.188;2022-10-15T00:35:36;5.13;;;4.13;;
9938;SDS011;5008;50.656;7.188;2022-10-15T00:38:03;4.20;;;3.80;;
9938;SDS011;5008;50.656;7.188;2022-10-15T00:40:30;4.10;;;3.60;;
9938;SDS011;5008;50.656;7.188;2022-10-15T00:42:57;5.50;;;4.70;;
9938;SDS011;5008;50.656;7.188;2022-10-15T00:45:24;6.00;;;5.50;;
9938;SDS011;5008;50.656;7.188;2022-10-15T00:47:51;7.20;;;6.60;;
9938;SDS011;5008;50.656;7.188;2022-10-15T00:50:19;7.70;;;6.97;;
9938;SDS011;5008;50.656;7.188;2022-10-15T00:52:53;7.93;;;7.13;;
9938;SDS011;5008;50.656;7.188;2022-10-15T00:55:26;8.60;;;7.70;;
9938;SDS011;5008;50.656;7.188;2022-10-15T00:57:55;8.33;;;7.53;;
9938;SDS011;5008;50.656;7.188;2022-10-15T01:00:25;8.10;;;7.10;;
9938;SDS011;5008;50.656;7.188;2022-10-15T01:02:52;6.07;;;5.47;;
9938;SDS011;5008;50.656;7.188;2022-10-15T01:05:19;7.20;;;6.40;;
9938;SDS011;5008;50.656;7.188;2022-10-15T01:07:47;7.80;;;7.10;;
9938;SDS011;5008;50.656;7.188;2022-10-15T01:10:15;7.40;;;6.70;;
9938;SDS011;5008;50.656;7.188;2022-10-15T01:12:56;6.13;;;5.57;;
9938;SDS011;5008;50.656;7.188;2022-10-15T01:15:28;6.10;;;5.53;;
9938;SDS011;5008;50.656;7.188;2022-10-15T01:18:03;4.70;;;4.30;;
9938;SDS011;5008;50.656;7.188;2022-10-15T01:20:50;5.83;;;5.23;;
9938;SDS011;5008;50.656;7.188;2022-10-15T01:23:32;6.60;;;5.70;;
9938;SDS011;5008;50.656;7.188;2022-10-15T01:26:39;5.83;;;5.33;;
9938;SDS011;5008;50.656;7.188;2022-10-15T01:29:34;5.50;;;5.00;;
9938;SDS011;5008;50.656;7.188;2022-10-15T01:32:25;6.37;;;5.77;;
9938;SDS011;5008;50.656;7.188;2022-10-15T01:34:54;6.07;;;5.47;;
9938;SDS011;5008;50.656;7.188;2022-10-15T01:37:26;7.27;;;6.57;;
9938;SDS011;5008;50.656;7.188;2022-10-15T01:40:04;6.50;;;5.90;;
9938;SDS011;5008;50.656;7.188;2022-10-15T01:42:36;7.40;;;6.33;;
9938;SDS011;5008;50.656;7.188;2022-10-15T01:45:09;7.40;;;6.70;;
9938;SDS011;5008;50.656;7.188;2022-10-15T01:47:45;7.50;;;6.80;;
9938;SDS011;5008;50.656;7.188;2022-10-15T01:50:16;6.77;;;5.83;;
9938;SDS011;5008;50.656;7.188;2022-10-15T01:52:46;6.77;;;6.03;;
9938;SDS011;5008;50.656;7.188;2022-10-15T01:55:15;7.23;;;6.53;;
9938;SDS011;5008;50.656;7.188;2022-10-15T01:57:45;8.47;;;7.67;;
9938;SDS011;5008;50.656;7.188;2022-10-15T02:00:14;8.03;;;7.23;;
9938;SDS011;5008;50.656;7.188;2022-10-15T02:02:41;7.40;;;6.70;;
9938;SDS011;5008;50.656;7.188;2022-10-15T02:05:11;6.40;;;5.90;;
9938;SDS011;5008;50.656;7.188;2022-10-15T02:07:44;6.93;;;6.23;;
9938;SDS011;5008;50.656;7.188;2022-10-15T02:10:21;6.90;;;6.20;;
9938;SDS011;5008;50.656;7.188;2022-10-15T02:12:56;6.37;;;5.87;;
9938;SDS011;5008;50.656;7.188;2022-10-15T02:15:32;6.17;;;5.67;;
9938;SDS011;5008;50.656;7.188;2022-10-15T02:18:13;6.80;;;6.10;;
9938;SDS011;5008;50.656;7.188;2022-10-15T02:20:46;6.83;;;6.23;;
9938;SDS011;5008;50.656;7.188;2022-10-15T02:23:17;6.57;;;5.90;;
9938;SDS011;5008;50.656;7.188;2022-10-15T02:25:46;8.23;;;6.20;;
9938;SDS011;5008;50.656;7.188;2022-10-15T02:28:16;7.50;;;6.10;;
9938;SDS011;5008;50.656;7.188;2022-10-15T02:30:44;7.17;;;6.43;;
9938;SDS011;5008;50.656;7.188;2022-10-15T02:33:16;6.97;;;6.37;;
9938;SDS011;5008;50.656;7.188;2022-10-15T02:35:45;7.17;;;6.33;;
9938;SDS011;5008;50.656;7.188;2022-10-15T02:38:15;7.93;;;6.83;;
9938;SDS011;5008;50.656;7.188;2022-10-15T02:40:44;8.20;;;6.10;;
9938;SDS011;5008;50.656;7.188;2022-10-15T02:43:14;7.27;;;6.37;;
9938;SDS011;5008;50.656;7.188;2022-10-15T02:45:44;8.80;;;7.77;;
9938;SDS011;5008;50.656;7.188;2022-10-15T02:48:10;6.80;;;6.10;;
9938;SDS011;5008;50.656;7.188;2022-10-15T02:50:39;8.43;;;6.90;;
9938;SDS011;5008;50.656;7.188;2022-10-15T02:53:06;6.53;;;5.93;;
9938;SDS011;5008;50.656;7.188;2022-10-15T02:55:33;6.50;;;5.77;;
9938;SDS011;5008;50.656;7.188;2022-10-15T02:57:59;7.93;;;7.13;;
9938;SDS011;5008;50.656;7.188;2022-10-15T03:00:26;7.80;;;7.10;;
9938;SDS011;5008;50.656;7.188;2022-10-15T03:02:53;9.07;;;7.07;;
9938;SDS011;5008;50.656;7.188;2022-10-15T03:05:20;7.87;;;6.60;;
9938;SDS011;5008;50.656;7.188;2022-10-15T03:07:48;7.73;;;6.70;;
9938;SDS011;5008;50.656;7.188;2022-10-15T03:12:46;6.33;;;5.73;;
9938;SDS011;5008;50.656;7.188;2022-10-15T03:15:12;7.10;;;6.43;;
9938;SDS011;5008;50.656;7.188;2022-10-15T03:17:39;6.77;;;6.17;;
9938;SDS011;5008;50.656;7.188;2022-10-15T03:20:06;7.43;;;6.70;;
9938;SDS011;5008;50.656;7.188;2022-10-15T03:22:33;7.20;;;6.40;;
9938;SDS011;5008;50.656;7.188;2022-10-15T03:25:02;6.83;;;6.13;;
9938;SDS011;5008;50.656;7.188;2022-10-15T03:27:29;6.83;;;6.23;;
9938;SDS011;5008;50.656;7.188;2022-10-15T03:29:56;6.87;;;6.27;;
9938;SDS011;5008;50.656;7.188;2022-10-15T03:32:22;7.20;;;6.57;;
9938;SDS011;5008;50.656;7.188;2022-10-15T03:34:49;7.07;;;6.47;;
9938;SDS011;5008;50.656;7.188;2022-10-15T03:37:16;6.97;;;6.30;;
9938;SDS011;5008;50.656;7.188;2022-10-15T03:39:43;7.80;;;6.37;;
9938;SDS011;5008;50.656;7.188;2022-10-15T03:42:11;6.87;;;6.27;;
9938;SDS011;5008;50.656;7.188;2022-10-15T03:44:38;6.17;;;5.57;;
9938;SDS011;5008;50.656;7.188;2022-10-15T03:47:04;6.30;;;5.73;;
9938;SDS011;5008;50.656;7.188;2022-10-15T03:49:31;5.90;;;5.40;;
9938;SDS011;5008;50.656;7.188;2022-10-15T03:51:58;5.70;;;5.20;;
9938;SDS011;5008;50.656;7.188;2022-10-15T03:54:25;6.23;;;5.63;;
9938;SDS011;5008;50.656;7.188;2022-10-15T03:56:51;5.53;;;4.93;;
9938;SDS011;5008;50.656;7.188;2022-10-15T03:59:20;5.67;;;4.87;;
9938;SDS011;5008;50.656;7.188;2022-10-15T04:01:46;6.23;;;5.50;;
9938;SDS011;5008;50.656;7.188;2022-10-15T04:04:13;5.83;;;4.60;;
9938;SDS011;5008;50.656;7.188;2022-10-15T04:06:40;4.73;;;4.33;;
9938;SDS011;5008;50.656;7.188;2022-10-15T04:09:09;5.17;;;4.50;;
9938;SDS011;5008;50.656;7.188;2022-10-15T04:11:36;4.87;;;4.47;;
9938;SDS011;5008;50.656;7.188;2022-10-15T04:14:03;5.67;;;4.97;;
9938;SDS011;5008;50.656;7.188;2022-10-15T04:16:31;5.37;;;4.90;;
9938;SDS011;5008;50.656;7.188;2022-10-15T04:18:58;5.00;;;4.60;;
9938;SDS011;5008;50.656;7.188;2022-10-15T04:21:25;5.50;;;4.87;;
9938;SDS011;5008;50.656;7.188;2022-10-15T04:23:52;5.43;;;4.93;;
9938;SDS011;5008;50.656;7.188;2022-10-15T04:26:19;5.10;;;4.70;;
9938;SDS011;5008;50.656;7.188;2022-10-15T04:28:46;5.53;;;5.03;;
9938;SDS011;5008;50.656;7.188;2022-10-15T04:31:13;6.47;;;5.17;;
9938;SDS011;5008;50.656;7.188;2022-10-15T04:33:41;5.40;;;4.90;;
9938;SDS011;5008;50.656;7.188;2022-10-15T04:36:10;6.80;;;4.63;;
9938;SDS011;5008;50.656;7.188;2022-10-15T04:38:38;4.97;;;4.47;;
9938;SDS011;5008;50.656;7.188;2022-10-15T04:41:06;4.30;;;4.00;;
9938;SDS011;5008;50.656;7.188;2022-10-15T04:43:34;4.67;;;4.00;;
9938;SDS011;5008;50.656;7.188;2022-10-15T04:46:02;4.50;;;4.10;;
9938;SDS011;5008;50.656;7.188;2022-10-15T04:48:31;4.50;;;4.10;;
9938;SDS011;5008;50.656;7.188;2022-10-15T04:51:03;4.53;;;3.80;;
9938;SDS011;5008;50.656;7.188;2022-10-15T04:53:31;4.07;;;3.77;;
9938;SDS011;5008;50.656;7.188;2022-10-15T04:55:59;4.83;;;4.00;;
9938;SDS011;5008;50.656;7.188;2022-10-15T04:58:27;4.97;;;4.27;;
9938;SDS011;5008;50.656;7.188;2022-10-15T05:00:57;4.40;;;4.00;;
9938;SDS011;5008;50.656;7.188;2022-10-15T05:03:25;5.60;;;3.97;;
9938;SDS011;5008;50.656;7.188;2022-10-15T05:05:52;4.00;;;3.70;;
9938;SDS011;5008;50.656;7.188;2022-10-15T05:08:20;4.00;;;3.70;;
9938;SDS011;5008;50.656;7.188;2022-10-15T05:10:46;4.53;;;3.70;;
9938;SDS011;5008;50.656;7.188;2022-10-15T05:13:13;4.63;;;3.63;;
9938;SDS011;5008;50.656;7.188;2022-10-15T05:15:40;5.40;;;4.43;;
9938;SDS011;5008;50.656;7.188;2022-10-15T05:18:07;4.70;;;4.00;;
9938;SDS011;5008;50.656;7.188;2022-10-15T05:20:34;4.67;;;4.17;;
9938;SDS011;5008;50.656;7.188;2022-10-15T05:23:00;3.83;;;3.53;;
9938;SDS011;5008;50.656;7.188;2022-10-15T05:25:29;4.13;;;3.83;;
9938;SDS011;5008;50.656;7.188;2022-10-15T05:27:56;3.87;;;3.50;;
9938;SDS011;5008;50.656;7.188;2022-10-15T05:30:23;5.80;;;5.20;;
9938;SDS011;5008;50.656;7.188;2022-10-15T05:32:50;5.03;;;4.53;;
9938;SDS011;5008;50.656;7.188;2022-10-15T05:35:17;5.10;;;4.23;;
9938;SDS011;5008;50.656;7.188;2022-10-15T05:37:44;4.57;;;4.10;;
9938;SDS011;5008;50.656;7.188;2022-10-15T05:40:11;5.40;;;3.97;;
9938;SDS011;5008;50.656;7.188;2022-10-15T05:42:39;4.27;;;3.87;;
9938;SDS011;5008;50.656;7.188;2022-10-15T05:45:06;4.50;;;4.10;;
9938;SDS011;5008;50.656;7.188;2022-10-15T05:47:34;4.40;;;4.07;;
9938;SDS011;5008;50.656;7.188;2022-10-15T05:50:01;5.23;;;4.40;;
9938;SDS011;5008;50.656;7.188;2022-10-15T05:52:27;4.83;;;4.37;;
9938;SDS011;5008;50.656;7.188;2022-10-15T05:54:54;5.73;;;4.27;;
9938;SDS011;5008;50.656;7.188;2022-10-15T05:57:21;5.67;;;4.30;;
9938;SDS011;5008;50.656;7.188;2022-10-15T05:59:49;5.37;;;4.60;;
9938;SDS011;5008;50.656;7.188;2022-10-15T06:02:16;4.87;;;4.47;;
9938;SDS011;5008;50.656;7.188;2022-10-15T06:04:43;5.57;;;5.07;;
9938;SDS011;5008;50.656;7.188;2022-10-15T06:07:09;4.87;;;4.37;;
9938;SDS011;5008;50.656;7.188;2022-10-15T06:09:36;4.33;;;4.00;;
9938;SDS011;5008;50.656;7.188;2022-10-15T06:12:03;5.77;;;4.57;;
9938;SDS011;5008;50.656;7.188;2022-10-15T06:14:30;4.90;;;4.40;;
9938;SDS011;5008;50.656;7.188;2022-10-15T06:16:58;5.37;;;4.87;;
9938;SDS011;5008;50.656;7.188;2022-10-15T06:19:25;5.10;;;4.70;;
9938;SDS011;5008;50.656;7.188;2022-10-15T06:21:51;5.37;;;4.73;;
9938;SDS011;5008;50.656;7.188;2022-10-15T06:24:18;5.07;;;4.27;;
9938;SDS011;5008;50.656;7.188;2022-10-15T06:26:45;6.03;;;4.30;;
9938;SDS011;5008;50.656;7.188;2022-10-15T06:29:12;4.20;;;3.80;;
9938;SDS011;5008;50.656;7.188;2022-10-15T06:31:39;4.70;;;4.00;;
9938;SDS011;5008;50.656;7.188;2022-10-15T06:34:07;6.20;;;4.43;;
9938;SDS011;5008;50.656;7.188;2022-10-15T06:36:34;5.17;;;4.10;;
9938;SDS011;5008;50.656;7.188;2022-10-15T06:39:01;6.97;;;5.07;;
9938;SDS011;5008;50.656;7.188;2022-10-15T06:41:28;5.23;;;4.73;;
9938;SDS011;5008;50.656;7.188;2022-10-15T06:43:54;4.63;;;4.10;;
9938;SDS011;5008;50.656;7.188;2022-10-15T06:46:21;5.03;;;4.53;;
9938;SDS011;5008;50.656;7.188;2022-10-15T06:48:48;5.97;;;5.40;;
9938;SDS011;5008;50.656;7.188;2022-10-15T06:51:17;5.30;;;4.30;;
9938;SDS011;5008;50.656;7.188;2022-10-15T06:53:44;5.00;;;4.20;;
9938;SDS011;5008;50.656;7.188;2022-10-15T06:56:10;6.63;;;5.97;;
9938;SDS011;5008;50.656;7.188;2022-10-15T06:58:40;8.30;;;7.50;;
9938;SDS011;5008;50.656;7.188;2022-10-15T07:01:07;7.77;;;7.07;;
9938;SDS011;5008;50.656;7.188;2022-10-15T07:03:34;11.90;;;8.70;;
9938;SDS011;5008;50.656;7.188;2022-10-15T07:06:03;8.90;;;8.10;;
9938;SDS011;5008;50.656;7.188;2022-10-15T07:08:32;7.50;;;6.47;;
9938;SDS011;5008;50.656;7.188;2022-10-15T07:11:00;6.00;;;5.47;;
9938;SDS011;5008;50.656;7.188;2022-10-15T07:13:27;7.00;;;6.30;;
9938;SDS011;5008;50.656;7.188;2022-10-15T07:15:54;7.03;;;6.17;;
9938;SDS011;5008;50.656;7.188;2022-10-15T07:18:21;6.00;;;5.50;;
9938;SDS011;5008;50.656;7.188;2022-10-15T07:20:48;7.27;;;6.60;;
9938;SDS011;5008;50.656;7.188;2022-10-15T07:23:15;6.57;;;6.03;;
9938;SDS011;5008;50.656;7.188;2022-10-15T07:25:43;6.80;;;5.97;;
9938;SDS011;5008;50.656;7.188;2022-10-15T07:28:09;8.53;;;6.27;;
9938;SDS011;5008;50.656;7.188;2022-10-15T07:30:36;6.23;;;5.60;;
9938;SDS011;5008;50.656;7.188;2022-10-15T07:33:03;6.10;;;5.50;;
9938;SDS011;5008;50.656;7.188;2022-10-15T07:35:30;6.50;;;5.97;;
9938;SDS011;5008;50.656;7.188;2022-10-15T07:37:58;6.47;;;5.87;;
9938;SDS011;5008;50.656;7.188;2022-10-15T07:40:25;5.20;;;4.70;;
9938;SDS011;5008;50.656;7.188;2022-10-15T07:42:54;6.07;;;5.17;;
9938;SDS011;5008;50.656;7.188;2022-10-15T07:45:21;4.60;;;4.20;;
9938;SDS011;5008;50.656;7.188;2022-10-15T07:47:49;6.70;;;4.67;;
9938;SDS011;5008;50.656;7.188;2022-10-15T07:50:16;5.40;;;4.90;;
9938;SDS011;5008;50.656;7.188;2022-10-15T07:52:43;4.90;;;3.97;;
9938;SDS011;5008;50.656;7.188;2022-10-15T07:55:09;4.17;;;3.40;;
9938;SDS011;5008;50.656;7.188;2022-10-15T07:57:37;3.83;;;3.50;;
9938;SDS011;5008;50.656;7.188;2022-10-15T08:00:05;4.40;;;3.70;;
9938;SDS011;5008;50.656;7.188;2022-10-15T08:02:33;3.60;;;3.30;;
9938;SDS011;5008;50.656;7.188;2022-10-15T08:05:00;3.60;;;3.30;;
9938;SDS011;5008;50.656;7.188;2022-10-15T08:07:27;3.43;;;3.13;;
9938;SDS011;5008;50.656;7.188;2022-10-15T08:09:53;3.93;;;3.53;;
9938;SDS011;5008;50.656;7.188;2022-10-15T08:12:20;3.40;;;3.10;;
9938;SDS011;5008;50.656;7.188;2022-10-15T08:14:47;3.47;;;3.17;;
9938;SDS011;5008;50.656;7.188;2022-10-15T08:17:15;4.00;;;3.57;;
9938;SDS011;5008;50.656;7.188;2022-10-15T08:19:42;3.37;;;3.07;;
9938;SDS011;5008;50.656;7.188;2022-10-15T08:22:09;3.20;;;2.83;;
9938;SDS011;5008;50.656;7.188;2022-10-15T08:24:36;3.27;;;2.97;;
9938;SDS011;5008;50.656;7.188;2022-10-15T08:27:03;2.97;;;2.67;;
9938;SDS011;5008;50.656;7.188;2022-10-15T08:29:30;2.93;;;2.63;;
9938;SDS011;5008;50.656;7.188;2022-10-15T08:31:57;2.50;;;2.30;;
9938;SDS011;5008;50.656;7.188;2022-10-15T08:34:25;2.70;;;2.30;;
9938;SDS011;5008;50.656;7.188;2022-10-15T08:36:52;2.60;;;2.27;;
9938;SDS011;5008;50.656;7.188;2022-10-15T08:39:18;2.23;;;2.00;;
9938;SDS011;5008;50.656;7.188;2022-10-15T08:41:46;2.97;;;1.97;;
9938;SDS011;5008;50.656;7.188;2022-10-15T08:44:19;4.10;;;2.17;;
9938;SDS011;5008;50.656;7.188;2022-10-15T08:46:49;2.60;;;2.40;;
9938;SDS011;5008;50.656;7.188;2022-10-15T08:49:24;1.80;;;1.70;;
9938;SDS011;5008;50.656;7.188;2022-10-15T08:52:02;1.98;;;1.85;;
9938;SDS011;5008;50.656;7.188;2022-10-15T08:54:36;1.37;;;1.27;;
9938;SDS011;5008;50.656;7.188;2022-10-15T08:57:07;1.30;;;1.20;;
9938;SDS011;5008;50.656;7.188;2022-10-15T08:59:43;1.55;;;1.45;;
9938;SDS011;5008;50.656;7.188;2022-10-15T09:02:15;1.40;;;1.30;;
9938;SDS011;5008;50.656;7.188;2022-10-15T09:04:47;1.38;;;1.27;;
9938;SDS011;5008;50.656;7.188;2022-10-15T09:07:22;1.05;;;1.05;;
9938;SDS011;5008;50.656;7.188;2022-10-15T09:10:09;1.10;;;1.10;;
9938;SDS011;5008;50.656;7.188;2022-10-15T09:38:26;1.20;;;1.15;;
9938;SDS011;5008;50.656;7.188;2022-10-15T09:41:06;1.08;;;0.95;;
9938;SDS011;5008;50.656;7.188;2022-10-15T09:47:44;1.00;;;1.00;;
9938;SDS011;5008;50.656;7.188;2022-10-15T09:50:12;0.80;;;0.80;;
9938;SDS011;5008;50.656;7.188;2022-10-15T09:52:45;1.20;;;1.10;;
9938;SDS011;5008;50.656;7.188;2022-10-15T09:55:32;0.90;;;0.90;;
9938;SDS011;5008;50.656;7.188;2022-10-15T09:58:07;1.00;;;1.00;;
9938;SDS011;5008;50.656;7.188;2022-10-15T10:00:52;1.00;;;1.00;;
9938;SDS011;5008;50.656;7.188;2022-10-15T10:03:21;0.85;;;0.85;;
9938;SDS011;5008;50.656;7.188;2022-10-15T10:05:50;0.93;;;0.73;;
9938;SDS011;5008;50.656;7.188;2022-10-15T10:08:24;2.30;;;0.80;;
9938;SDS011;5008;50.656;7.188;2022-10-15T10:10:56;2.10;;;0.90;;
9938;SDS011;5008;50.656;7.188;2022-10-15T10:13:26;0.85;;;0.80;;
9938;SDS011;5008;50.656;7.188;2022-10-15T10:15:56;0.70;;;0.70;;
9938;SDS011;5008;50.656;7.188;2022-10-15T10:18:29;0.63;;;0.63;;
9938;SDS011;5008;50.656;7.188;2022-10-15T10:20:59;0.85;;;0.82;;
9938;SDS011;5008;50.656;7.188;2022-10-15T10:23:29;0.98;;;0.82;;
9938;SDS011;5008;50.656;7.188;2022-10-15T10:26:04;0.50;;;0.50;;
9938;SDS011;5008;50.656;7.188;2022-10-15T10:28:34;0.50;;;0.50;;
9938;SDS011;5008;50.656;7.188;2022-10-15T10:31:05;2.05;;;0.70;;
9938;SDS011;5008;50.656;7.188;2022-10-15T10:33:34;0.60;;;0.60;;
9938;SDS011;5008;50.656;7.188;2022-10-15T10:36:07;0.55;;;0.55;;
9938;SDS011;5008;50.656;7.188;2022-10-15T10:38:53;2.03;;;0.85;;
9938;SDS011;5008;50.656;7.188;2022-10-15T10:41:23;0.77;;;0.77;;
9938;SDS011;5008;50.656;7.188;2022-10-15T10:44:17;1.05;;;0.60;;
9938;SDS011;5008;50.656;7.188;2022-10-15T10:46:57;0.60;;;0.60;;
9938;SDS011;5008;50.656;7.188;2022-10-15T10:49:31;0.80;;;0.80;;
9938;SDS011;5008;50.656;7.188;2022-10-15T10:51:59;0.65;;;0.65;;
9938;SDS011;5008;50.656;7.188;2022-10-15T10:54:26;0.65;;;0.60;;
9938;SDS011;5008;50.656;7.188;2022-10-15T10:56:56;0.88;;;0.88;;
9938;SDS011;5008;50.656;7.188;2022-10-15T10:59:25;0.57;;;0.50;;
9938;SDS011;5008;50.656;7.188;2022-10-15T11:01:56;0.40;;;0.40;;
9938;SDS011;5008;50.656;7.188;2022-10-15T11:04:23;0.63;;;0.63;;
9938;SDS011;5008;50.656;7.188;2022-10-15T11:06:57;0.70;;;0.68;;
9938;SDS011;5008;50.656;7.188;2022-10-15T11:09:37;0.50;;;0.50;;
9938;SDS011;5008;50.656;7.188;2022-10-15T11:13:00;0.40;;;0.40;;
9938;SDS011;5008;50.656;7.188;2022-10-15T11:15:38;0.20;;;0.20;;
9938;SDS011;5008;50.656;7.188;2022-10-15T11:18:21;0.40;;;0.35;;
9938;SDS011;5008;50.656;7.188;2022-10-15T11:20:57;0.50;;;0.50;;
9938;SDS011;5008;50.656;7.188;2022-10-15T11:23:37;0.90;;;0.50;;
9938;SDS011;5008;50.656;7.188;2022-10-15T11:26:19;0.35;;;0.35;;
9938;SDS011;5008;50.656;7.188;2022-10-15T11:29:01;0.50;;;0.50;;
9938;SDS011;5008;50.656;7.188;2022-10-15T11:31:35;0.35;;;0.35;;
9938;SDS011;5008;50.656;7.188;2022-10-15T11:34:09;0.70;;;0.63;;
9938;SDS011;5008;50.656;7.188;2022-10-15T11:36:51;0.43;;;0.43;;
9938;SDS011;5008;50.656;7.188;2022-10-15T11:39:41;1.67;;;1.00;;
9938;SDS011;5008;50.656;7.188;2022-10-15T11:42:22;0.43;;;0.43;;
9938;SDS011;5008;50.656;7.188;2022-10-15T11:44:58;0.95;;;0.60;;
9938;SDS011;5008;50.656;7.188;2022-10-15T11:47:37;0.70;;;0.70;;
9938;SDS011;5008;50.656;7.188;2022-10-15T11:50:16;0.50;;;0.50;;
9938;SDS011;5008;50.656;7.188;2022-10-15T11:52:54;0.47;;;0.47;;
9938;SDS011;5008;50.656;7.188;2022-10-15T11:55:31;0.63;;;0.63;;
9938;SDS011;5008;50.656;7.188;2022-10-15T11:58:05;0.60;;;0.60;;
9938;SDS011;5008;50.656;7.188;2022-10-15T12:00:39;1.00;;;0.70;;
9938;SDS011;5008;50.656;7.188;2022-10-15T12:03:11;0.70;;;0.68;;
9938;SDS011;5008;50.656;7.188;2022-10-15T12:05:42;2.03;;;0.40;;
9938;SDS011;5008;50.656;7.188;2022-10-15T12:08:13;0.47;;;0.47;;
9938;SDS011;5008;50.656;7.188;2022-10-15T12:10:48;3.42;;;0.70;;
9938;SDS011;5008;50.656;7.188;2022-10-15T12:13:27;0.47;;;0.40;;
9938;SDS011;5008;50.656;7.188;2022-10-15T12:16:07;0.50;;;0.50;;
9938;SDS011;5008;50.656;7.188;2022-10-15T12:18:42;0.80;;;0.80;;
9938;SDS011;5008;50.656;7.188;2022-10-15T12:27:15;0.75;;;0.75;;
9938;SDS011;5008;50.656;7.188;2022-10-15T12:29:46;0.20;;;0.20;;
9938;SDS011;5008;50.656;7.188;2022-10-15T12:32:23;0.30;;;0.30;;
9938;SDS011;5008;50.656;7.188;2022-10-15T12:34:54;0.52;;;0.20;;
9938;SDS011;5008;50.656;7.188;2022-10-15T12:37:22;0.20;;;0.20;;
9938;SDS011;5008;50.656;7.188;2022-10-15T12:39:58;0.30;;;0.30;;
9938;SDS011;5008;50.656;7.188;2022-10-15T12:42:29;0.28;;;0.28;;
9938;SDS011;5008;50.656;7.188;2022-10-15T12:44:58;0.15;;;0.15;;
9938;SDS011;5008;50.656;7.188;2022-10-15T12:47:46;0.10;;;0.10;;
9938;SDS011;5008;50.656;7.188;2022-10-15T12:50:18;0.30;;;0.20;;
9938;SDS011;5008;50.656;7.188;2022-10-15T12:58:59;1.00;;;0.30;;
9938;SDS011;5008;50.656;7.188;2022-10-15T13:01:49;0.38;;;0.35;;
9938;SDS011;5008;50.656;7.188;2022-10-15T13:04:24;0.73;;;0.30;;
9938;SDS011;5008;50.656;7.188;2022-10-15T13:07:03;0.40;;;0.40;;
9938;SDS011;5008;50.656;7.188;2022-10-15T13:09:30;0.20;;;0.20;;
9938;SDS011;5008;50.656;7.188;2022-10-15T13:11:58;1.60;;;0.30;;
9938;SDS011;5008;50.656;7.188;2022-10-15T13:15:02;0.30;;;0.30;;
9938;SDS011;5008;50.656;7.188;2022-10-15T13:17:31;0.40;;;0.40;;
9938;SDS011;5008;50.656;7.188;2022-10-15T13:20:33;0.52;;;0.40;;
9938;SDS011;5008;50.656;7.188;2022-10-15T13:26:11;0.93;;;0.45;;
9938;SDS011;5008;50.656;7.188;2022-10-15T13:28:42;0.40;;;0.40;;
9938;SDS011;5008;50.656;7.188;2022-10-15T13:31:20;0.20;;;0.20;;
9938;SDS011;5008;50.656;7.188;2022-10-15T13:33:49;1.17;;;0.30;;
9938;SDS011;5008;50.656;7.188;2022-10-15T13:36:20;0.13;;;0.13;;
9938;SDS011;5008;50.656;7.188;2022-10-15T13:38:53;0.20;;;0.20;;
9938;SDS011;5008;50.656;7.188;2022-10-15T13:41:23;0.20;;;0.20;;
9938;SDS011;5008;50.656;7.188;2022-10-15T13:43:51;0.32;;;0.10;;
9938;SDS011;5008;50.656;7.188;2022-10-15T13:46:22;0.20;;;0.20;;
9938;SDS011;5008;50.656;7.188;2022-10-15T13:48:51;0.32;;;0.30;;
9938;SDS011;5008;50.656;7.188;2022-10-15T13:51:27;1.10;;;0.22;;
9938;SDS011;5008;50.656;7.188;2022-10-15T13:53:59;0.80;;;0.22;;
9938;SDS011;5008;50.656;7.188;2022-10-15T13:56:28;0.35;;;0.35;;
9938;SDS011;5008;50.656;7.188;2022-10-15T13:58:56;0.22;;;0.22;;
9938;SDS011;5008;50.656;7.188;2022-10-15T14:01:25;1.95;;;0.30;;
9938;SDS011;5008;50.656;7.188;2022-10-15T14:03:53;0.28;;;0.20;;
9938;SDS011;5008;50.656;7.188;2022-10-15T14:06:22;0.30;;;0.30;;
9938;SDS011;5008;50.656;7.188;2022-10-15T14:08:51;1.52;;;0.30;;
9938;SDS011;5008;50.656;7.188;2022-10-15T14:11:20;0.28;;;0.28;;
9938;SDS011;5008;50.656;7.188;2022-10-15T14:13:48;1.02;;;0.47;;
9938;SDS011;5008;50.656;7.188;2022-10-15T14:16:17;0.30;;;0.30;;
9938;SDS011;5008;50.656;7.188;2022-10-15T14:18:47;0.40;;;0.35;;
9938;SDS011;5008;50.656;7.188;2022-10-15T14:21:16;0.88;;;0.52;;
9938;SDS011;5008;50.656;7.188;2022-10-15T14:23:45;1.77;;;1.38;;
9938;SDS011;5008;50.656;7.188;2022-10-15T14:26:15;0.40;;;0.40;;
9938;SDS011;5008;50.656;7.188;2022-10-15T14:28:49;0.40;;;0.40;;
9938;SDS011;5008;50.656;7.188;2022-10-15T14:31:28;1.38;;;0.20;;
9938;SDS011;5008;50.656;7.188;2022-10-15T14:33:58;0.40;;;0.40;;
9938;SDS011;5008;50.656;7.188;2022-10-15T14:36:25;0.20;;;0.20;;
9938;SDS011;5008;50.656;7.188;2022-10-15T14:38:54;1.30;;;0.40;;
9938;SDS011;5008;50.656;7.188;2022-10-15T14:41:43;0.93;;;0.30;;
9938;SDS011;5008;50.656;7.188;2022-10-15T14:44:20;0.40;;;0.40;;
9938;SDS011;5008;50.656;7.188;2022-10-15T14:46:47;0.57;;;0.57;;
9938;SDS011;5008;50.656;7.188;2022-10-15T14:49:18;0.55;;;0.55;;
9938;SDS011;5008;50.656;7.188;2022-10-15T14:51:52;0.40;;;0.40;;
9938;SDS011;5008;50.656;7.188;2022-10-15T14:54:34;0.98;;;0.25;;
9938;SDS011;5008;50.656;7.188;2022-10-15T14:57:08;0.68;;;0.40;;
9938;SDS011;5008;50.656;7.188;2022-10-15T14:59:42;0.50;;;0.50;;
9938;SDS011;5008;50.656;7.188;2022-10-15T15:02:10;0.40;;;0.40;;
9938;SDS011;5008;50.656;7.188;2022-10-15T15:04:41;0.43;;;0.40;;
9938;SDS011;5008;50.656;7.188;2022-10-15T15:07:10;0.50;;;0.50;;
9938;SDS011;5008;50.656;7.188;2022-10-15T15:09:42;0.43;;;0.40;;
9938;SDS011;5008;50.656;7.188;2022-10-15T15:12:16;0.30;;;0.30;;
9938;SDS011;5008;50.656;7.188;2022-10-15T15:14:46;2.78;;;0.63;;
9938;SDS011;5008;50.656;7.188;2022-10-15T15:17:19;3.00;;;0.70;;
9938;SDS011;5008;50.656;7.188;2022-10-15T15:19:48;2.63;;;0.70;;
9938;SDS011;5008;50.656;7.188;2022-10-15T15:22:25;1.15;;;0.60;;
9938;SDS011;5008;50.656;7.188;2022-10-15T15:24:55;0.90;;;0.70;;
9938;SDS011;5008;50.656;7.188;2022-10-15T15:27:25;0.95;;;0.73;;
9938;SDS011;5008;50.656;7.188;2022-10-15T15:29:53;0.43;;;0.43;;
9938;SDS011;5008;50.656;7.188;2022-10-15T15:32:21;0.38;;;0.38;;
9938;SDS011;5008;50.656;7.188;2022-10-15T15:34:49;0.52;;;0.50;;
9938;SDS011;5008;50.656;7.188;2022-10-15T15:37:17;0.80;;;0.70;;
9938;SDS011;5008;50.656;7.188;2022-10-15T15:39:45;0.70;;;0.40;;
9938;SDS011;5008;50.656;7.188;2022-10-15T15:42:13;0.60;;;0.52;;
9938;SDS011;5008;50.656;7.188;2022-10-15T15:44:43;1.30;;;0.40;;
9938;SDS011;5008;50.656;7.188;2022-10-15T15:47:10;0.47;;;0.47;;
9938;SDS011;5008;50.656;7.188;2022-10-15T15:49:37;0.30;;;0.30;;
9938;SDS011;5008;50.656;7.188;2022-10-15T15:52:04;0.63;;;0.40;;
9938;SDS011;5008;50.656;7.188;2022-10-15T15:54:32;0.40;;;0.40;;
9938;SDS011;5008;50.656;7.188;2022-10-15T15:56:59;0.40;;;0.30;;
9938;SDS011;5008;50.656;7.188;2022-10-15T15:59:26;1.27;;;0.80;;
9938;SDS011;5008;50.656;7.188;2022-10-15T16:01:54;0.40;;;0.40;;
9938;SDS011;5008;50.656;7.188;2022-10-15T16:04:21;0.40;;;0.40;;
9938;SDS011;5008;50.656;7.188;2022-10-15T16:06:48;0.50;;;0.50;;
9938;SDS011;5008;50.656;7.188;2022-10-15T16:09:15;0.35;;;0.35;;
9938;SDS011;5008;50.656;7.188;2022-10-15T16:11:43;0.50;;;0.50;;
9938;SDS011;5008;50.656;7.188;2022-10-15T16:14:10;0.68;;;0.60;;
9938;SDS011;5008;50.656;7.188;2022-10-15T16:16:37;0.40;;;0.40;;
9938;SDS011;5008;50.656;7.188;2022-10-15T16:19:05;0.82;;;0.80;;
9938;SDS011;5008;50.656;7.188;2022-10-15T16:21:32;2.00;;;1.00;;
9938;SDS011;5008;50.656;7.188;2022-10-15T16:24:00;0.60;;;0.60;;